Country
Station

 

Weather  for  Guymon/Guymon Municipal Airport  -  United States    United States

  
22 °C (72 °F)
    
 
 

Current METAR for Guymon/Guymon Municipal Airport is :

KGUY 171053Z AUTO 00000KT 10SM FEW090 BKN120 22/17 A3007 RMK AO2 SLP129 T02170172

 

This is a report for Guymon/Guymon Municipal Airport - United States.
 
The report was made 41 minutes ago, at 10:53 UTC .
The wind was calm.
 
The temperature was 22 °C (72 °F), with a dew-point at 17 °C (63 °F).
The temperature felt like 23 °C (74 °F).
 
The atmospheric pressure was 1018 hPa (30.07 inHg).
The relative humidity was 73.3%.
 
There were a few clouds at a height of 2743 meters (9000 feet) and broken clouds at a height of 3658 meters (12000 feet).
 
The overall visibility was 16.1 kilometers (10.0 miles).
 

 
 
 
 

Country :   A   B   C   D   E   F   G   H   I   J   K   L   M   N   O   P   Q   R   S   T   U   V   W   Y   Z

 

Site Info  |  Disclaimer  |  Credits  |  Privacy
Contact us  |  Add to favorites
© 2013-2018 METARs - All rights reserved